createdAt,value
2022-11-28T00:01:03.645Z,101872.50
2022-11-28T00:03:31.175Z,101875.53
2022-11-28T00:06:05.652Z,101876.53
2022-11-28T00:08:33.256Z,101873.72
2022-11-28T00:11:04.257Z,101876.91
2022-11-28T00:13:32.709Z,101881.53
2022-11-28T00:16:00.891Z,101885.28
2022-11-28T00:18:28.345Z,101882.34
2022-11-28T00:21:02.389Z,101886.13
2022-11-28T00:23:35.849Z,101883.63
2022-11-28T00:26:07.446Z,101896.84
2022-11-28T00:28:34.958Z,101889.00
2022-11-28T00:31:03.221Z,101899.72
2022-11-28T00:33:31.294Z,101897.41
2022-11-28T00:36:02.113Z,101882.34
2022-11-28T00:38:29.729Z,101891.06
2022-11-28T00:41:04.753Z,101890.94
2022-11-28T00:43:32.366Z,101894.03
2022-11-28T00:46:00.060Z,101887.88
2022-11-28T00:48:27.658Z,101884.13
2022-11-28T00:50:55.505Z,101894.59
2022-11-28T00:53:23.023Z,101885.28
2022-11-28T00:55:54.412Z,101890.09
2022-11-28T00:58:24.435Z,101889.25
2022-11-28T01:00:51.861Z,101897.72
2022-11-28T01:03:19.242Z,101890.63
2022-11-28T01:05:46.687Z,101896.94
2022-11-28T01:08:13.961Z,101891.63
2022-11-28T01:10:42.319Z,101896.31
2022-11-28T01:13:09.992Z,101897.78
2022-11-28T01:15:39.253Z,101892.91
2022-11-28T01:18:06.705Z,101894.31
2022-11-28T01:20:34.481Z,101897.09
2022-11-28T01:23:01.815Z,101892.91
2022-11-28T01:25:29.395Z,101893.56
2022-11-28T01:27:56.709Z,101890.34
2022-11-28T01:30:24.154Z,101888.25
2022-11-28T01:32:51.563Z,101898.41
2022-11-28T01:35:19.080Z,101892.28
2022-11-28T01:37:46.439Z,101890.22
2022-11-28T01:40:13.877Z,101895.28
2022-11-28T01:42:41.473Z,101898.59
2022-11-28T01:45:13.558Z,101900.09
2022-11-28T01:47:40.917Z,101896.31
2022-11-28T01:50:08.491Z,101898.50
2022-11-28T01:52:36.936Z,101896.25
2022-11-28T01:55:04.502Z,101896.13
2022-11-28T01:57:31.849Z,101899.25
2022-11-28T02:00:02.688Z,101895.16
2022-11-28T02:02:46.995Z,101899.19
2022-11-28T02:05:14.825Z,101901.50
2022-11-28T02:07:42.231Z,101894.59
2022-11-28T02:10:10.646Z,101899.84
2022-11-28T02:12:57.158Z,101896.31
2022-11-28T02:15:32.372Z,101896.81
2022-11-28T02:17:59.726Z,101894.09
2022-11-28T02:20:36.157Z,101891.91
2022-11-28T02:23:09.808Z,101899.69
2022-11-28T02:25:55.551Z,101901.75
2022-11-28T02:28:35.083Z,101899.06
2022-11-28T02:31:21.189Z,101902.41
2022-11-28T02:33:52.826Z,101899.84
2022-11-28T02:36:26.464Z,101907.94
2022-11-28T02:38:57.283Z,101909.50
2022-11-28T02:41:27.925Z,101892.25
2022-11-28T02:44:04.714Z,101886.50
2022-11-28T02:46:41.793Z,101896.22
2022-11-28T02:49:11.932Z,101896.00
2022-11-28T02:51:40.867Z,101895.84
2022-11-28T02:54:09.146Z,101893.81
2022-11-28T02:56:36.744Z,101887.03
2022-11-28T02:59:04.218Z,101896.00
2022-11-28T03:01:36.189Z,101893.50
2022-11-28T03:04:12.686Z,101900.22
2022-11-28T03:06:40.551Z,101900.91
2022-11-28T03:09:07.870Z,101900.53
2022-11-28T03:11:38.500Z,101901.50
2022-11-28T03:14:14.876Z,101901.22
2022-11-28T03:16:49.559Z,101903.78
2022-11-28T03:19:22.244Z,101901.16
2022-11-28T03:21:52.966Z,101904.13
2022-11-28T03:24:23.044Z,101912.50
2022-11-28T03:26:57.822Z,101906.72
2022-11-28T03:29:32.956Z,101911.13
2022-11-28T03:32:01.184Z,101914.97
2022-11-28T03:34:32.819Z,101920.56
2022-11-28T03:37:01.795Z,101923.31
2022-11-28T03:39:30.413Z,101928.03
2022-11-28T03:41:59.500Z,101928.28
2022-11-28T03:44:35.992Z,101929.88
2022-11-28T03:47:03.444Z,101936.66
2022-11-28T03:49:34.965Z,101924.56
2022-11-28T03:52:03.348Z,101929.41
2022-11-28T03:54:43.125Z,101925.22
2022-11-28T03:57:12.729Z,101924.34
2022-11-28T03:59:41.758Z,101930.50
2022-11-28T04:02:15.196Z,101937.06
2022-11-28T04:04:48.453Z,101934.00
2022-11-28T04:07:19.118Z,101928.94
2022-11-28T04:10:09.510Z,101936.00
2022-11-28T04:12:40.527Z,101930.34
2022-11-28T04:15:18.161Z,101931.25
2022-11-28T04:18:11.911Z,101934.75
2022-11-28T04:20:41.795Z,101930.22
2022-11-28T04:23:10.726Z,101929.75
2022-11-28T04:25:38.951Z,101937.38
2022-11-28T04:28:07.672Z,101927.31
2022-11-28T04:30:35.133Z,101929.75
2022-11-28T04:33:03.572Z,101936.03
2022-11-28T04:35:31.598Z,101931.19
2022-11-28T08:44:02.811Z,102052.00
2022-11-28T08:46:30.831Z,102056.41
2022-11-28T08:48:58.849Z,102051.97
2022-11-28T08:51:26.506Z,102056.78
2022-11-28T08:53:59.084Z,102055.72
2022-11-28T08:56:27.173Z,102054.88
2022-11-28T08:58:55.041Z,102048.50
2022-11-28T09:01:23.393Z,102049.22
2022-11-28T09:03:51.073Z,102044.75
2022-11-28T09:06:18.655Z,102048.72
2022-11-28T09:08:45.943Z,102049.56
2022-11-28T09:11:14.381Z,102053.16
2022-11-28T09:13:41.719Z,102049.59
2022-11-28T09:16:09.395Z,102053.50
2022-11-28T09:18:36.921Z,102055.69
2022-11-28T09:21:05.344Z,102051.09
2022-11-28T09:23:33.620Z,102045.97
2022-11-28T09:26:01.726Z,102049.88
2022-11-28T09:28:29.379Z,102041.69
2022-11-28T09:31:00.594Z,102050.25
2022-11-28T09:33:28.821Z,102044.63
2022-11-28T09:35:56.402Z,102048.72
2022-11-28T09:38:24.291Z,102050.41
2022-11-28T09:40:51.776Z,102052.16
2022-11-28T09:43:38.616Z,102045.97
2022-11-28T09:46:06.361Z,102050.59
2022-11-28T09:48:37.243Z,102042.69
2022-11-28T09:51:25.435Z,102042.84
2022-11-28T09:53:58.957Z,102041.31
2022-11-28T09:56:26.318Z,102046.47
2022-11-28T09:58:53.678Z,102042.38
2022-11-28T10:01:33.036Z,102041.69
2022-11-28T10:04:03.010Z,102038.56
2022-11-28T10:06:51.532Z,102043.38
2022-11-28T10:09:43.605Z,102040.78
2022-11-28T10:12:11.379Z,102037.53
2022-11-28T10:14:42.747Z,102043.00
2022-11-28T10:17:15.227Z,102035.47
2022-11-28T10:19:57.368Z,102041.47
2022-11-28T10:22:48.396Z,102036.03
2022-11-28T10:25:18.208Z,102036.00
2022-11-28T10:27:45.846Z,102035.31
2022-11-28T10:30:13.261Z,102033.25
2022-11-28T10:32:42.432Z,102035.50
2022-11-28T10:35:28.958Z,102037.03
2022-11-28T10:37:56.509Z,102031.72
2022-11-28T10:40:35.873Z,102037.91
2022-11-28T10:43:23.469Z,102028.44
2022-11-28T10:46:09.437Z,102034.66
2022-11-28T10:48:55.421Z,102027.47
2022-11-28T10:51:22.837Z,102028.63
2022-11-28T10:54:02.654Z,102023.16
2022-11-28T10:56:36.963Z,102022.97
2022-11-28T10:59:10.549Z,102025.25
2022-11-28T11:01:39.018Z,102013.91
2022-11-28T11:04:06.563Z,102019.91
2022-11-28T11:06:41.618Z,102026.94
2022-11-28T11:09:10.014Z,102025.56
2022-11-28T11:11:37.492Z,102018.69
2022-11-28T11:14:08.839Z,102024.34
2022-11-28T11:16:59.503Z,102027.31
2022-11-28T11:19:29.990Z,102029.50
2022-11-28T11:22:12.876Z,102027.25
2022-11-28T11:24:40.290Z,102034.97
2022-11-28T11:27:13.438Z,102036.91
2022-11-28T11:29:41.580Z,102034.13
2022-11-28T11:32:41.922Z,102039.66
2022-11-28T11:35:15.444Z,102032.28
2022-11-28T11:37:43.765Z,102042.56
2022-11-28T11:40:20.785Z,102043.75
2022-11-28T11:42:54.435Z,102042.72
2022-11-28T11:45:28.230Z,102043.25
2022-11-28T11:47:56.079Z,102039.66
2022-11-28T11:50:24.103Z,102041.88
2022-11-28T11:53:03.871Z,102040.16
2022-11-28T11:55:32.070Z,102034.34
2022-11-28T11:58:05.287Z,102034.31
2022-11-28T12:00:38.025Z,102028.66
2022-11-28T12:03:14.743Z,102036.22
2022-11-28T12:06:12.744Z,102037.06
2022-11-28T12:08:36.514Z,102025.75
2022-11-28T12:11:13.594Z,102032.63
2022-11-28T12:13:41.583Z,102033.97
2022-11-28T12:16:13.980Z,102040.66
2022-11-28T12:18:42.003Z,102045.47
2022-11-28T12:21:14.258Z,102037.09
2022-11-28T12:23:48.100Z,102037.94
2022-11-28T12:26:16.066Z,102039.28
2022-11-28T12:28:47.614Z,102036.03
2022-11-28T12:31:24.412Z,102038.09
2022-11-28T12:33:51.885Z,102043.75
2022-11-28T12:36:25.332Z,102046.19
2022-11-28T12:39:01.009Z,102053.19
2022-11-28T12:41:33.028Z,102053.03
2022-11-28T12:44:32.980Z,102048.91
2022-11-28T12:47:23.753Z,102053.66
2022-11-28T12:49:54.326Z,102038.78
2022-11-28T12:52:25.083Z,102048.34
2022-11-28T12:54:57.978Z,102056.94
2022-11-28T12:57:28.606Z,102052.50
2022-11-28T13:00:02.199Z,102048.53
2022-11-28T13:02:54.225Z,102060.88
2022-11-28T13:05:24.440Z,102060.69
2022-11-28T13:07:58.298Z,102056.25
2022-11-28T13:10:29.465Z,102044.88
2022-11-28T13:12:58.447Z,102059.28
2022-11-28T13:15:46.237Z,102047.66
2022-11-28T13:18:13.785Z,102059.50
2022-11-28T13:20:50.022Z,102052.97
2022-11-28T13:23:30.088Z,102050.44
2022-11-28T13:26:03.906Z,102050.53
2022-11-28T13:28:33.903Z,102049.16
2022-11-28T13:31:09.073Z,102064.03
2022-11-28T13:33:49.305Z,102053.91
2022-11-28T13:39:32.358Z,102070.03
2022-11-28T13:42:44.273Z,102071.03
2022-11-28T13:45:16.965Z,102069.69
2022-11-28T13:47:45.006Z,102076.91
2022-11-28T13:50:28.279Z,102084.13
2022-11-28T13:53:15.742Z,102086.16
2022-11-28T13:55:47.081Z,102087.06
2022-11-28T13:58:24.554Z,102086.97
2022-11-28T19:57:53.532Z,102158.03
2022-11-28T20:00:22.124Z,102153.72
2022-11-28T20:02:50.442Z,102152.22
2022-11-28T20:05:18.607Z,102162.00
2022-11-28T20:07:46.130Z,102152.47
2022-11-28T20:10:13.785Z,102150.81
2022-11-28T20:12:42.312Z,102149.81
2022-11-28T20:15:13.791Z,102139.59
2022-11-28T20:17:45.066Z,102145.53
2022-11-28T20:20:13.270Z,102135.28
2022-11-28T20:22:41.388Z,102138.63
2022-11-28T20:25:08.942Z,102149.56
2022-11-28T20:27:36.289Z,102141.75
2022-11-28T20:30:06.050Z,102144.03
2022-11-28T20:32:33.781Z,102155.75
2022-11-28T20:35:01.394Z,102164.47
2022-11-28T20:37:29.371Z,102162.16
2022-11-28T20:39:57.570Z,102173.16
2022-11-28T20:42:24.966Z,102165.34
2022-11-28T20:44:52.592Z,102162.56
2022-11-28T20:47:20.243Z,102164.13
2022-11-28T20:49:47.528Z,102167.38
2022-11-28T20:52:14.852Z,102167.97
2022-11-28T20:54:42.493Z,102166.31
2022-11-28T20:57:25.254Z,102168.41
2022-11-28T20:59:55.434Z,102160.38
2022-11-28T21:02:23.156Z,102162.28
2022-11-28T21:04:50.785Z,102166.44
2022-11-28T21:07:18.712Z,102165.84
2022-11-28T21:09:46.319Z,102174.00
2022-11-28T21:12:19.475Z,102174.81
2022-11-28T21:14:48.441Z,102161.94
2022-11-28T21:17:15.731Z,102164.72
2022-11-28T21:19:43.660Z,102171.09
2022-11-28T21:22:11.481Z,102173.66
2022-11-28T21:24:38.884Z,102159.66
2022-11-28T21:27:06.267Z,102170.03
2022-11-28T21:29:33.612Z,102158.84
2022-11-28T21:32:01.023Z,102160.94
2022-11-28T21:34:28.499Z,102163.69
2022-11-28T21:36:55.980Z,102159.66
2022-11-28T21:39:23.711Z,102162.00
2022-11-28T21:41:51.298Z,102150.06
2022-11-28T21:44:19.030Z,102156.25
2022-11-28T21:46:46.334Z,102151.19
2022-11-28T21:49:13.737Z,102153.06
2022-11-28T21:51:41.216Z,102156.25
2022-11-28T21:54:10.101Z,102161.41
2022-11-28T21:56:37.813Z,102177.00
2022-11-28T21:59:05.855Z,102173.59
2022-11-28T22:01:33.500Z,102151.25
2022-11-28T22:04:03.145Z,102169.59
2022-11-28T22:06:31.884Z,102165.25
2022-11-28T22:09:08.284Z,102176.78
2022-11-28T22:11:37.630Z,102168.19
2022-11-28T22:14:05.246Z,102154.91
2022-11-28T22:16:33.293Z,102163.38
2022-11-28T22:19:00.800Z,102156.31
2022-11-28T22:21:51.506Z,102155.47
2022-11-28T22:24:15.713Z,102144.28
2022-11-28T22:26:44.786Z,102151.97
2022-11-28T22:29:13.664Z,102143.69
2022-11-28T22:31:41.559Z,102145.75
2022-11-28T22:34:09.262Z,102142.59
2022-11-28T22:36:36.848Z,102145.00
2022-11-28T22:39:04.883Z,102145.41
2022-11-28T22:41:33.362Z,102149.31
2022-11-28T22:44:01.433Z,102158.22
2022-11-28T22:46:30.783Z,102152.94
2022-11-28T22:49:00.146Z,102150.56
2022-11-28T22:51:28.215Z,102157.81
2022-11-28T22:53:56.572Z,102145.31
2022-11-28T22:56:26.443Z,102152.84
2022-11-28T22:58:54.406Z,102157.75
2022-11-28T23:01:22.737Z,102150.34
2022-11-28T23:03:50.097Z,102139.69
2022-11-28T23:06:19.913Z,102143.25
2022-11-28T23:08:52.452Z,102141.81
2022-11-28T23:11:21.038Z,102150.94
2022-11-28T23:13:49.323Z,102136.03
2022-11-28T23:16:21.498Z,102140.19
2022-11-28T23:18:49.917Z,102155.47
2022-11-28T23:21:18.188Z,102149.50
2022-11-28T23:23:46.217Z,102146.72
2022-11-28T23:26:14.500Z,102146.06
2022-11-28T23:28:41.967Z,102141.91
2022-11-28T23:31:10.804Z,102140.59
2022-11-28T23:33:38.813Z,102141.56
2022-11-28T23:36:16.515Z,102139.84
2022-11-28T23:38:44.089Z,102150.34
2022-11-28T23:41:12.076Z,102134.38
2022-11-28T23:43:39.519Z,102139.06
2022-11-28T23:46:07.017Z,102130.69
2022-11-28T23:48:34.450Z,102130.41
2022-11-28T23:51:02.015Z,102129.63
2022-11-28T23:53:29.435Z,102130.50
2022-11-28T23:56:01.904Z,102128.47
2022-11-28T23:58:29.461Z,102132.78
